Terminal Aerodrome Forecast
Issued by NWS Sterling, VA

Home | Current Version | Previous Version | Text Only | Print | Product List | Glossary On
Versions: 1 2 3 4 5 6 7 8 9 10 11 12
000
FTUS41 KLWX 311700
TAFCHO
TAF
KCHO 311732Z 3118/0118 20006KT P6SM SCT050
     FM312000 20007KT P6SM BKN050
     FM010200 VRB03KT P6SM BKN050 BKN100
     FM010900 VRB03KT 5SM -SHRA BKN050 OVC100=

USA.gov is the U.S. government's official web portal to all federal, state and local government web resources and services.